Time;durP1;ratioP1;P1;durP2;ratioP2;P2;SDS_P1;SDS_P2;PMS_P1;PMS_P2;Temp;Humidity;BMP_temperature;BMP_pressure;BME280_temperature;BME280_humidity;BME280_pressure;Samples;Min_cycle;Max_cycle;Signal;HPM_P1;HPM_P2
2021/09/16 00:02:21;;;;;;;21.10;15.60;;;;;;;11.83;90.73;94781.84;1596418;88;21241;-65
2021/09/16 00:04:47;;;;;;;25.08;17.50;;;;;;;11.79;90.93;94785.95;1600421;87;20978;-65
2021/09/16 00:07:14;;;;;;;27.95;19.80;;;;;;;11.73;91.41;94781.64;1596867;89;21167;-63
2021/09/16 00:09:42;;;;;;;27.05;18.02;;;;;;;11.71;91.61;94786.84;1595951;88;21113;-64
2021/09/16 00:12:11;;;;;;;26.65;18.35;;;;;;;11.62;91.20;94785.44;1599729;88;21037;-65
2021/09/16 00:14:37;;;;;;;33.33;18.55;;;;;;;11.50;91.24;94787.64;1596418;87;21552;-65
2021/09/16 00:17:05;;;;;;;27.70;18.85;;;;;;;11.40;91.54;94784.69;1600251;88;21045;-64
2021/09/16 00:19:32;;;;;;;25.15;18.67;;;;;;;11.37;91.73;94777.30;1599347;89;21115;-64
2021/09/16 00:22:00;;;;;;;29.90;19.25;;;;;;;11.32;91.90;94782.03;1600361;88;21015;-64
2021/09/16 00:24:27;;;;;;;21.75;17.75;;;;;;;11.31;92.24;94783.25;1598943;89;21553;-64
2021/09/16 00:26:53;;;;;;;32.83;18.15;;;;;;;11.37;92.48;94778.68;1554213;91;21010;-64
2021/09/16 00:29:20;;;;;;;30.20;19.87;;;;;;;11.40;92.49;94786.06;1597671;88;21658;-64
2021/09/16 00:31:47;;;;;;;32.90;19.67;;;;;;;11.42;92.53;94783.62;1597759;88;21151;-63
2021/09/16 00:34:13;;;;;;;24.98;17.45;;;;;;;11.43;92.37;94787.92;1594537;88;21897;-64
2021/09/16 00:36:41;;;;;;;24.60;17.23;;;;;;;11.43;92.26;94776.90;1600687;88;21069;-65
2021/09/16 00:39:08;;;;;;;34.27;17.98;;;;;;;11.42;91.91;94782.84;1598865;88;21566;-64
2021/09/16 00:41:36;;;;;;;27.40;18.32;;;;;;;11.43;91.96;94786.54;1599483;87;21007;-64
2021/09/16 00:44:04;;;;;;;25.50;17.98;;;;;;;11.41;92.08;94784.84;1594062;88;21156;-63
2021/09/16 00:46:31;;;;;;;29.82;18.00;;;;;;;11.39;92.14;94784.50;1592796;88;21035;-64
2021/09/16 00:48:59;;;;;;;24.55;18.10;;;;;;;11.35;92.12;94780.37;1596849;88;21026;-65
2021/09/16 00:51:27;;;;;;;22.05;16.55;;;;;;;11.36;92.30;94775.02;1592866;88;21082;-65
2021/09/16 00:53:54;;;;;;;23.57;16.30;;;;;;;11.38;92.33;94780.22;1595462;88;21023;-64
2021/09/16 00:56:23;;;;;;;26.80;16.65;;;;;;;11.37;92.24;94771.05;1637033;86;21114;-64
2021/09/16 00:58:53;;;;;;;19.77;15.28;;;;;;;11.28;92.23;94777.27;1601156;88;21622;-64
2021/09/16 01:01:20;;;;;;;16.45;14.10;;;;;;;11.22;92.24;94776.92;1596240;88;21045;-64
2021/09/16 01:03:46;;;;;;;20.72;15.00;;;;;;;11.16;92.42;94779.48;1598138;88;21034;-64
2021/09/16 01:06:14;;;;;;;23.05;17.25;;;;;;;11.12;92.47;94776.09;1602143;88;21141;-65
2021/09/16 01:08:41;;;;;;;26.85;16.97;;;;;;;11.07;92.54;94778.66;1577573;89;21165;-63
2021/09/16 01:11:08;;;;;;;29.37;16.93;;;;;;;11.01;92.79;94776.33;1596765;89;21541;-64
2021/09/16 01:13:34;;;;;;;21.93;15.98;;;;;;;10.96;92.97;94774.16;1594493;89;21212;-64
2021/09/16 01:16:03;;;;;;;18.00;15.25;;;;;;;10.94;93.17;94780.11;1600326;88;21154;-64
2021/09/16 01:18:31;;;;;;;24.32;17.73;;;;;;;10.92;93.39;94774.28;1600831;88;21094;-65
2021/09/16 01:20:58;;;;;;;22.77;14.63;;;;;;;10.93;93.74;94774.45;1597059;88;21225;-65
2021/09/16 01:23:26;;;;;;;17.30;14.70;;;;;;;10.97;93.90;94786.09;1597071;88;21089;-64
2021/09/16 01:25:54;;;;;;;21.48;16.02;;;;;;;10.97;93.75;94780.58;1603096;88;21034;-64
2021/09/16 01:28:22;;;;;;;25.72;16.07;;;;;;;10.97;93.81;94782.58;1597942;89;21085;-64
2021/09/16 01:30:49;;;;;;;24.20;15.65;;;;;;;10.98;94.01;94777.23;1599867;88;21078;-62
2021/09/16 01:33:17;;;;;;;25.57;16.10;;;;;;;11.00;94.30;94771.42;1551711;91;21201;-64
2021/09/16 01:35:43;;;;;;;23.20;15.58;;;;;;;11.07;94.73;94769.80;1551429;91;21038;-65
2021/09/16 01:38:10;;;;;;;19.75;15.53;;;;;;;11.16;94.64;94769.09;1578472;90;21103;-64
2021/09/16 01:40:36;;;;;;;25.12;14.90;;;;;;;11.21;94.22;94756.86;1561212;91;21272;-63
2021/09/16 01:43:03;;;;;;;17.42;15.10;;;;;;;11.24;93.94;94764.25;1599957;89;20947;-63
2021/09/16 01:45:31;;;;;;;22.73;14.63;;;;;;;11.27;94.13;94770.83;1600462;88;21006;-65
2021/09/16 01:48:00;;;;;;;18.65;14.68;;;;;;;11.27;93.89;94761.97;1549797;90;21513;-64
2021/09/16 01:50:28;;;;;;;22.27;13.72;;;;;;;11.28;93.59;94763.50;1595775;87;21038;-65
2021/09/16 01:52:56;;;;;;;22.82;14.60;;;;;;;11.22;92.89;94761.18;1597594;88;21070;-64
2021/09/16 01:55:23;;;;;;;22.70;16.12;;;;;;;11.15;92.78;94752.41;1595675;88;20986;-63
2021/09/16 01:57:49;;;;;;;27.17;17.05;;;;;;;11.08;92.78;94741.05;1599128;88;21781;-64
2021/09/16 02:00:18;;;;;;;20.48;15.68;;;;;;;11.05;92.89;94752.97;1595697;88;20986;-64
2021/09/16 02:02:44;;;;;;;18.52;12.88;;;;;;;11.04;93.14;94748.69;1599936;88;20994;-64
2021/09/16 02:05:11;;;;;;;20.23;13.60;;;;;;;11.07;93.28;94748.38;1598497;88;21027;-65
2021/09/16 02:07:39;;;;;;;19.42;12.78;;;;;;;11.05;93.38;94750.81;1599077;89;21555;-65
2021/09/16 02:10:09;;;;;;;27.25;15.68;;;;;;;11.00;93.64;94749.40;1598552;88;21011;-63
2021/09/16 02:12:35;;;;;;;17.12;13.43;;;;;;;11.01;93.90;94746.05;1598577;89;21494;-63
2021/09/16 02:15:04;;;;;;;24.85;15.83;;;;;;;11.03;93.98;94751.28;1594841;89;21090;-65
2021/09/16 02:17:31;;;;;;;20.15;14.93;;;;;;;11.00;93.82;94757.66;1597994;89;21536;-63
2021/09/16 02:19:57;;;;;;;26.65;17.27;;;;;;;10.97;93.98;94762.69;1601122;89;21124;-64
2021/09/16 02:22:24;;;;;;;21.25;15.68;;;;;;;10.94;94.18;94757.30;1597210;89;21801;-65
2021/09/16 02:24:51;;;;;;;20.75;15.43;;;;;;;10.93;94.22;94760.68;1600364;88;21101;-64
2021/09/16 02:27:17;;;;;;;16.12;13.25;;;;;;;10.93;94.32;94762.05;1596106;89;21522;-65
2021/09/16 02:29:44;;;;;;;15.85;12.85;;;;;;;10.96;94.41;94757.65;1597802;89;21037;-65
2021/09/16 02:32:10;;;;;;;17.15;13.40;;;;;;;11.00;94.60;94756.91;1598266;89;21021;-63
2021/09/16 02:34:37;;;;;;;19.80;13.55;;;;;;;11.03;94.56;94761.51;1553037;91;21583;-64
2021/09/16 02:37:04;;;;;;;15.50;12.88;;;;;;;11.03;94.39;94759.53;1598949;88;21034;-64
2021/09/16 02:39:33;;;;;;;18.65;12.65;;;;;;;11.03;94.52;94758.16;1602941;89;21037;-66
2021/09/16 02:41:59;;;;;;;19.87;12.65;;;;;;;11.09;94.59;94760.48;1600303;89;21108;-65
2021/09/16 02:44:26;;;;;;;18.15;13.65;;;;;;;11.14;94.49;94758.52;1598670;89;20987;-64
2021/09/16 02:46:52;;;;;;;27.30;14.10;;;;;;;11.18;94.43;94760.52;1602985;88;21422;-64
2021/09/16 02:49:19;;;;;;;13.88;10.93;;;;;;;11.21;94.01;94751.36;1597733;89;21101;-64
2021/09/16 02:51:46;;;;;;;19.95;13.13;;;;;;;11.18;93.43;94756.39;1599681;89;21015;-64
2021/09/16 02:54:12;;;;;;;13.30;11.45;;;;;;;11.16;93.32;94760.20;1550730;89;21181;-64
2021/09/16 02:56:40;;;;;;;14.87;11.68;;;;;;;11.14;93.29;94757.14;1593953;88;21589;-64
2021/09/16 02:59:07;;;;;;;18.87;11.88;;;;;;;11.09;93.12;94759.70;1597716;89;21180;-64
2021/09/16 03:01:34;;;;;;;17.25;11.90;;;;;;;11.03;93.15;94759.53;1598842;88;21192;-64
2021/09/16 03:04:01;;;;;;;15.60;11.70;;;;;;;11.02;93.28;94763.48;1599886;88;21023;-64
2021/09/16 03:06:29;;;;;;;16.45;11.60;;;;;;;11.02;93.30;94760.72;1562556;91;21031;-63
2021/09/16 03:08:57;;;;;;;22.98;14.65;;;;;;;11.03;93.42;94756.78;1599779;87;21118;-65
2021/09/16 03:11:24;;;;;;;20.72;14.28;;;;;;;11.01;93.47;94751.55;1599197;89;21202;-65
2021/09/16 03:13:52;;;;;;;18.62;13.70;;;;;;;10.98;93.40;94757.34;1593579;88;20978;-64
2021/09/16 03:16:21;;;;;;;25.70;17.32;;;;;;;10.98;93.41;94764.84;1594691;89;21006;-64
2021/09/16 03:18:48;;;;;;;24.05;16.85;;;;;;;10.99;93.58;94765.00;1594486;89;37771;-64
2021/09/16 03:21:17;;;;;;;25.32;16.80;;;;;;;11.04;93.99;94765.80;1594934;88;21016;-64
2021/09/16 03:23:43;;;;;;;24.82;16.30;;;;;;;11.08;94.15;94765.83;1591576;89;21159;-64
2021/09/16 03:26:10;;;;;;;20.60;15.80;;;;;;;11.13;94.25;94765.87;1593405;89;21093;-63
2021/09/16 03:28:38;;;;;;;20.80;15.80;;;;;;;11.19;94.18;94762.05;1591342;89;21139;-65
2021/09/16 03:31:06;;;;;;;20.10;15.80;;;;;;;11.24;93.87;94757.36;1596379;89;21030;-65
2021/09/16 03:33:33;;;;;;;21.82;16.77;;;;;;;11.28;93.51;94760.75;1594399;88;20983;-64
2021/09/16 03:36:00;;;;;;;23.83;17.70;;;;;;;11.26;93.36;94755.52;1592287;88;21141;-66
2021/09/16 03:38:27;;;;;;;25.23;17.02;;;;;;;11.25;93.47;94757.52;1615170;87;21531;-64
2021/09/16 03:40:55;;;;;;;21.95;14.78;;;;;;;11.24;93.24;94751.86;1592761;89;20986;-63
2021/09/16 03:43:22;;;;;;;23.55;15.28;;;;;;;11.24;93.11;94750.48;1589957;89;21070;-64
2021/09/16 03:45:50;;;;;;;20.85;14.00;;;;;;;11.22;93.11;94755.67;1590854;89;21014;-64
2021/09/16 03:48:16;;;;;;;21.50;14.30;;;;;;;11.20;92.86;94756.70;1595360;89;21865;-64
2021/09/16 03:50:45;;;;;;;15.65;13.15;;;;;;;11.15;92.66;94757.30;1591588;89;20991;-64
2021/09/16 03:53:14;;;;;;;16.97;11.95;;;;;;;11.14;92.73;94755.02;1592362;89;21019;-63
2021/09/16 03:55:40;;;;;;;14.05;12.10;;;;;;;11.15;92.72;94755.92;1592745;89;21087;-65
2021/09/16 03:58:07;;;;;;;17.35;14.03;;;;;;;11.19;92.97;94746.91;1595340;89;21491;-64
2021/09/16 04:00:33;;;;;;;21.60;14.15;;;;;;;11.25;92.65;94752.02;1590599;89;21786;-64
2021/09/16 04:03:10;;;;;;;16.70;13.78;;;;;;;11.24;92.26;94753.23;1592891;89;21046;-64
2021/09/16 04:05:39;;;;;;;16.25;12.35;;;;;;;11.25;92.30;94752.02;1592295;89;21082;-64
2021/09/16 04:08:06;;;;;;;16.77;12.05;;;;;;;11.27;92.33;94761.97;1593074;89;21586;-64
2021/09/16 04:10:32;;;;;;;23.27;16.77;;;;;;;11.29;91.87;94767.79;1593344;89;21106;-65
2021/09/16 04:13:01;;;;;;;27.90;19.35;;;;;;;11.31;92.06;94762.59;1592438;89;21066;-64
2021/09/16 04:15:28;;;;;;;23.45;17.70;;;;;;;11.33;91.83;94761.53;1593215;89;21170;-64
2021/09/16 04:17:56;;;;;;;25.77;16.32;;;;;;;11.36;91.97;94760.62;1596925;88;21446;-64
2021/09/16 04:20:23;;;;;;;27.93;15.23;;;;;;;11.38;91.68;94766.45;1590470;89;21039;-63
2021/09/16 04:22:51;;;;;;;25.32;16.77;;;;;;;11.38;91.59;94760.94;1593177;89;21578;-64
2021/09/16 04:25:18;;;;;;;17.77;15.30;;;;;;;11.38;91.73;94762.94;1590523;89;21098;-65
2021/09/16 04:27:46;;;;;;;24.75;16.10;;;;;;;11.38;91.77;94762.31;1590872;89;21490;-65
2021/09/16 04:30:12;;;;;;;21.95;17.27;;;;;;;11.42;91.93;94756.67;1592235;89;20994;-64
2021/09/16 04:32:40;;;;;;;51.65;19.92;;;;;;;11.50;91.86;94760.09;1595359;89;21006;-64
2021/09/16 04:35:08;;;;;;;36.93;20.88;;;;;;;11.53;91.67;94751.53;1592549;89;20971;-64
2021/09/16 04:37:35;;;;;;;30.35;21.70;;;;;;;11.57;91.66;94761.20;1592493;89;20991;-64
2021/09/16 04:40:02;;;;;;;27.80;21.27;;;;;;;11.58;91.39;94754.50;1590947;89;20984;-65
2021/09/16 04:42:29;;;;;;;25.82;18.60;;;;;;;11.54;91.07;94753.06;1599529;88;20990;-66
2021/09/16 04:44:55;;;;;;;21.20;15.30;;;;;;;11.51;91.07;94760.24;1599249;88;21034;-63
2021/09/16 04:47:22;;;;;;;28.15;17.00;;;;;;;11.50;91.01;94753.82;1597381;88;21030;-64
2021/09/16 04:49:48;;;;;;;39.33;22.20;;;;;;;11.46;91.00;94757.30;1593621;89;21166;-64
2021/09/16 04:52:17;;;;;;;34.00;17.98;;;;;;;11.45;91.18;94753.80;1596504;88;20990;-64
2021/09/16 04:54:43;;;;;;;17.92;14.45;;;;;;;11.45;91.27;94756.55;1598714;88;21030;-65
2021/09/16 04:57:11;;;;;;;21.25;15.28;;;;;;;11.46;91.58;94759.46;1597046;89;21053;-64
2021/09/16 04:59:37;;;;;;;22.50;16.35;;;;;;;11.50;91.35;94758.70;1600264;88;21102;-64
2021/09/16 05:02:04;;;;;;;25.90;15.75;;;;;;;11.50;91.20;94757.33;1594886;88;21166;-64
2021/09/16 05:04:31;;;;;;;21.75;16.42;;;;;;;11.53;91.48;94761.93;1596149;89;21578;-64
2021/09/16 05:06:58;;;;;;;21.40;14.63;;;;;;;11.61;91.47;94754.97;1596617;88;21006;-64
2021/09/16 05:09:26;;;;;;;29.55;15.75;;;;;;;11.67;91.17;94753.75;1626489;87;21506;-66
2021/09/16 05:11:53;;;;;;;19.20;15.10;;;;;;;11.68;91.07;94759.44;1599648;89;21027;-63
2021/09/16 05:14:20;;;;;;;21.50;15.10;;;;;;;11.68;91.18;94757.44;1595403;89;21157;-65
2021/09/16 05:16:46;;;;;;;26.85;18.60;;;;;;;11.72;91.04;94761.44;1594145;90;21080;-65
2021/09/16 05:19:14;;;;;;;27.15;17.10;;;;;;;11.71;90.53;94762.04;1600439;88;21062;-64
2021/09/16 05:21:41;;;;;;;24.75;17.35;;;;;;;11.68;90.54;94760.19;1600137;88;21102;-66
2021/09/16 05:24:07;;;;;;;31.60;18.65;;;;;;;11.71;90.79;94766.80;1597998;88;21557;-64
2021/09/16 05:26:36;;;;;;;25.17;20.20;;;;;;;11.72;90.92;94766.33;1593137;88;20993;-64
2021/09/16 05:29:03;;;;;;;24.82;16.87;;;;;;;11.77;91.10;94765.75;1597412;87;21129;-65
2021/09/16 05:31:30;;;;;;;23.85;16.60;;;;;;;11.84;91.16;94760.55;1595959;89;23067;-65
2021/09/16 05:33:58;;;;;;;36.25;18.82;;;;;;;11.93;91.15;94765.48;1594944;88;21038;-66
2021/09/16 05:36:25;;;;;;;41.15;20.82;;;;;;;12.06;91.45;94760.62;1604731;87;21120;-64
2021/09/16 05:38:52;;;;;;;24.43;16.65;;;;;;;12.19;91.39;94761.27;1618096;87;21158;-62
2021/09/16 05:41:19;;;;;;;33.13;16.37;;;;;;;12.33;91.24;94767.59;1607229;87;21122;-67
2021/09/16 05:43:47;;;;;;;20.45;15.00;;;;;;;12.48;90.80;94759.47;1634124;86;21489;-66
2021/09/16 05:46:14;;;;;;;20.23;14.83;;;;;;;12.60;90.23;94761.48;1598909;87;21067;-67
2021/09/16 05:48:41;;;;;;;18.92;15.13;;;;;;;12.72;90.11;94758.42;1595748;88;21039;-68
2021/09/16 05:51:07;;;;;;;25.72;16.52;;;;;;;12.82;89.59;94753.81;1615101;86;21630;-69
2021/09/16 05:53:35;;;;;;;20.08;16.00;;;;;;;12.90;89.10;94761.92;1629779;87;21026;-66
2021/09/16 05:56:04;;;;;;;21.75;17.77;;;;;;;12.96;88.55;94754.61;1592410;88;21531;-68
2021/09/16 05:58:32;;;;;;;29.60;17.85;;;;;;;13.05;88.20;94763.49;1606647;87;21118;-64
2021/09/16 06:00:58;;;;;;;18.73;15.00;;;;;;;13.13;87.83;94761.94;1602847;88;21087;-59
2021/09/16 06:03:26;;;;;;;17.80;13.95;;;;;;;13.22;88.10;94759.14;1619700;86;21896;-67
2021/09/16 06:05:52;;;;;;;21.73;13.45;;;;;;;13.33;87.76;94760.22;1602819;87;21058;-69
2021/09/16 06:08:21;;;;;;;19.12;12.85;;;;;;;13.43;87.33;94752.67;1602374;88;21178;-66
2021/09/16 06:10:47;;;;;;;26.48;16.23;;;;;;;13.54;87.00;94757.86;1611292;86;21076;-65
2021/09/16 06:13:16;;;;;;;21.42;14.83;;;;;;;13.65;86.72;94756.73;1581466;89;21229;-63
2021/09/16 06:15:44;;;;;;;20.50;15.20;;;;;;;13.78;86.46;94757.30;1560259;90;21159;-65
2021/09/16 06:18:12;;;;;;;22.80;15.48;;;;;;;13.89;85.96;94749.87;1555940;91;21378;-69
2021/09/16 06:20:39;;;;;;;14.40;12.43;;;;;;;13.94;85.64;94746.47;1562285;89;21134;-62
2021/09/16 06:23:07;;;;;;;22.07;14.13;;;;;;;14.01;85.10;94748.27;1575574;89;21084;-64
2021/09/16 06:25:34;;;;;;;18.62;14.07;;;;;;;14.10;84.33;94741.93;1573847;89;21066;-62
2021/09/16 06:28:03;;;;;;;21.57;14.45;;;;;;;14.20;84.20;94743.45;1550251;89;21130;-68
2021/09/16 06:30:29;;;;;;;20.35;14.45;;;;;;;14.29;84.04;94740.02;1581460;87;21692;-69
2021/09/16 06:32:56;;;;;;;27.52;13.43;;;;;;;14.37;83.53;94737.03;1585956;89;21110;-69
2021/09/16 06:35:23;;;;;;;21.42;14.98;;;;;;;14.49;83.05;94738.80;1569344;89;21062;-73
2021/09/16 06:37:52;;;;;;;19.20;12.47;;;;;;;14.59;82.73;94736.88;1569096;90;21094;-65
2021/09/16 06:40:19;;;;;;;16.80;12.53;;;;;;;14.69;82.70;94732.81;1567857;89;21161;-66
2021/09/16 06:42:47;;;;;;;13.98;12.45;;;;;;;14.80;82.41;94729.49;1565488;90;22269;-61
2021/09/16 06:45:13;;;;;;;17.85;15.45;;;;;;;14.92;81.38;94738.92;1558551;90;21228;-66
2021/09/16 06:47:42;;;;;;;19.60;15.70;;;;;;;14.98;81.06;94737.02;1556070;90;21036;-61
2021/09/16 06:50:10;;;;;;;20.75;13.70;;;;;;;15.04;80.69;94737.13;1623504;85;21112;-63
2021/09/16 06:52:36;;;;;;;27.15;16.12;;;;;;;15.13;80.08;94732.26;1633209;86;21091;-64
2021/09/16 06:55:04;;;;;;;19.37;14.58;;;;;;;15.22;80.14;94729.38;1622868;86;21685;-62
2021/09/16 06:57:32;;;;;;;23.30;15.85;;;;;;;15.33;79.64;94731.01;1624755;86;21141;-58
2021/09/16 06:59:59;;;;;;;15.48;13.43;;;;;;;15.42;79.19;94729.54;1619501;87;22304;-61
2021/09/16 07:02:26;;;;;;;21.77;12.85;;;;;;;15.52;79.03;94730.20;1611137;86;21065;-64
2021/09/16 07:04:53;;;;;;;24.20;12.98;;;;;;;15.63;78.75;94722.83;1618295;87;21186;-63
2021/09/16 07:07:20;;;;;;;18.67;14.13;;;;;;;15.77;78.81;94722.02;1620618;86;21062;-63
2021/09/16 07:09:48;;;;;;;30.32;14.00;;;;;;;15.95;78.65;94720.41;1617903;86;21128;-61
2021/09/16 07:12:15;;;;;;;17.82;14.78;;;;;;;16.11;78.36;94718.50;1622191;86;21142;-59
2021/09/16 07:14:44;;;;;;;22.82;12.45;;;;;;;16.24;77.74;94716.17;1608344;88;21596;-60
2021/09/16 07:17:10;;;;;;;18.92;13.18;;;;;;;16.36;77.10;94715.11;1611635;86;21151;-59
2021/09/16 07:19:37;;;;;;;28.00;16.23;;;;;;;16.47;76.93;94713.85;1619439;87;21226;-57
2021/09/16 07:22:05;;;;;;;20.02;13.15;;;;;;;16.61;76.73;94718.59;1616288;87;21142;-66
2021/09/16 07:24:31;;;;;;;15.45;12.37;;;;;;;16.75;75.86;94713.59;1612124;87;21192;-61
2021/09/16 07:26:58;;;;;;;14.10;10.93;;;;;;;16.89;75.71;94714.13;1603586;87;21596;-61
2021/09/16 07:29:25;;;;;;;16.48;10.40;;;;;;;17.03;74.91;94720.20;1583032;88;21151;-72
2021/09/16 07:31:54;;;;;;;19.85;11.75;;;;;;;17.12;73.87;94718.03;1565531;90;21105;-66
2021/09/16 07:34:21;;;;;;;17.02;12.93;;;;;;;17.19;73.50;94718.23;1560757;90;21077;-62
2021/09/16 07:36:49;;;;;;;21.30;14.73;;;;;;;17.26;73.09;94715.03;1615051;86;21043;-63
2021/09/16 07:39:18;;;;;;;16.07;10.28;;;;;;;17.31;72.76;94717.09;1629156;86;21102;-62
2021/09/16 07:41:46;;;;;;;21.45;13.25;;;;;;;17.37;72.51;94712.37;1619864;87;21189;-58
2021/09/16 07:44:15;;;;;;;14.40;12.13;;;;;;;17.43;72.48;94709.78;1607624;88;21263;-64
2021/09/16 07:46:41;;;;;;;21.45;13.15;;;;;;;17.56;72.33;94706.60;1607961;87;21216;-64
2021/09/16 07:49:09;;;;;;;13.35;10.55;;;;;;;17.72;72.05;94704.59;1606413;88;21311;-64
2021/09/16 07:51:36;;;;;;;17.30;11.80;;;;;;;17.88;71.46;94705.34;1612906;86;21091;-65
2021/09/16 07:54:03;;;;;;;20.37;12.00;;;;;;;17.97;70.91;94705.17;1608116;88;21182;-62
2021/09/16 07:56:30;;;;;;;19.80;11.83;;;;;;;18.02;70.57;94702.41;1621955;87;21117;-61
2021/09/16 07:58:57;;;;;;;22.00;11.53;;;;;;;18.11;70.67;94692.48;1621238;87;21142;-65
2021/09/16 08:01:25;;;;;;;17.35;9.83;;;;;;;18.25;70.42;94695.09;1617552;87;21016;-71
2021/09/16 08:03:51;;;;;;;16.32;12.43;;;;;;;18.38;69.81;94691.90;1601134;86;21141;-63
2021/09/16 08:06:19;;;;;;;17.98;12.45;;;;;;;18.45;69.61;94693.59;1605253;87;21050;-67
2021/09/16 08:08:45;;;;;;;25.45;13.48;;;;;;;18.53;69.80;94693.88;1612891;87;21065;-63
2021/09/16 08:11:13;;;;;;;22.35;14.87;;;;;;;18.60;70.02;94689.98;1613552;87;21126;-68
2021/09/16 08:13:40;;;;;;;25.72;15.23;;;;;;;18.74;69.17;94687.66;1615102;86;21600;-64
2021/09/16 08:16:07;;;;;;;28.32;15.58;;;;;;;18.85;69.10;94682.09;1617521;87;21686;-64
2021/09/16 08:18:34;;;;;;;28.42;14.53;;;;;;;18.93;68.97;94679.59;1618222;88;21124;-64
2021/09/16 08:21:01;;;;;;;19.40;14.15;;;;;;;19.02;68.83;94675.19;1614403;87;21443;-59
2021/09/16 08:23:29;;;;;;;18.50;12.95;;;;;;;19.12;68.56;94678.64;1612655;87;21077;-57
2021/09/16 08:25:57;;;;;;;52.25;16.57;;;;;;;19.22;68.06;94682.73;1594234;89;21195;-65
2021/09/16 08:28:24;;;;;;;18.40;12.23;;;;;;;19.30;67.73;94675.41;1605866;88;21542;-61
2021/09/16 08:30:50;;;;;;;17.95;12.28;;;;;;;19.42;67.43;94672.77;1599440;88;21174;-65
2021/09/16 08:33:17;;;;;;;15.78;12.63;;;;;;;19.52;66.98;94667.05;1600474;88;21238;-64
2021/09/16 08:35:44;;;;;;;16.25;11.95;;;;;;;19.59;66.75;94670.72;1609594;87;21064;-62
2021/09/16 08:38:11;;;;;;;18.98;12.30;;;;;;;19.67;66.77;94669.59;1603041;87;21021;-62
2021/09/16 08:40:38;;;;;;;14.53;10.60;;;;;;;19.77;66.57;94668.82;1570640;88;21094;-63
2021/09/16 08:43:05;;;;;;;25.88;11.53;;;;;;;19.83;66.59;94668.20;1569570;91;21154;-59
2021/09/16 08:45:32;;;;;;;19.37;10.78;;;;;;;19.89;66.43;94661.97;1602211;87;21092;-63
2021/09/16 08:47:59;;;;;;;15.40;11.38;;;;;;;20.02;66.01;94666.44;1616408;86;21146;-63
2021/09/16 08:50:27;;;;;;;13.72;10.40;;;;;;;20.16;64.96;94659.81;1616323;88;21510;-66
2021/09/16 08:52:54;;;;;;;17.42;12.00;;;;;;;20.24;64.37;94657.39;1596235;88;21119;-62
2021/09/16 08:55:23;;;;;;;19.65;11.03;;;;;;;20.31;64.02;94657.47;1600130;87;21452;-64
2021/09/16 08:57:58;;;;;;;19.87;11.88;;;;;;;20.42;64.06;94656.05;1604737;88;21008;-64
2021/09/16 09:00:26;;;;;;;16.80;11.53;;;;;;;20.53;64.07;94651.83;1578239;89;21543;-65
2021/09/16 09:02:53;;;;;;;19.25;12.10;;;;;;;20.66;63.97;94646.42;1564518;90;21121;-66
2021/09/16 09:05:21;;;;;;;23.47;12.13;;;;;;;20.77;63.62;94646.39;1562429;91;21561;-64
2021/09/16 09:07:50;;;;;;;18.73;12.85;;;;;;;20.85;63.30;94641.17;1570854;90;22566;-56
2021/09/16 09:10:49;;;;;;;18.87;11.83;;;;;;;20.97;62.87;94640.47;1568910;90;21134;-70
2021/09/16 09:13:24;;;;;;;16.57;12.40;;;;;;;21.11;62.86;94640.78;1563539;90;21196;-56
2021/09/16 09:16:07;;;;;;;17.02;11.70;;;;;;;21.30;61.71;94638.88;1561851;89;21923;-67
2021/09/16 09:18:49;;;;;;;15.28;10.95;;;;;;;21.45;61.08;94633.03;1583329;88;21554;-63
2021/09/16 09:21:17;;;;;;;27.25;11.50;;;;;;;21.64;60.35;94627.58;1553184;90;21974;-66
2021/09/16 09:23:54;;;;;;;23.50;12.23;;;;;;;21.81;59.98;94622.60;1553926;89;21093;-61
2021/09/16 09:26:29;;;;;;;13.93;10.00;;;;;;;22.00;59.70;94619.23;1564833;90;21478;-63
2021/09/16 09:29:14;;;;;;;17.67;9.83;;;;;;;22.21;58.45;94612.00;1563056;90;21085;-63
2021/09/16 09:31:44;;;;;;;18.73;10.58;;;;;;;22.38;58.65;94605.60;1558254;90;21090;-64
2021/09/16 09:34:32;;;;;;;21.65;11.38;;;;;;;22.59;58.20;94610.83;1570611;89;21674;-62
2021/09/16 09:37:19;;;;;;;13.48;9.35;;;;;;;22.77;57.24;94603.08;1599251;88;21047;-59
2021/09/16 09:39:49;;;;;;;11.08;9.18;;;;;;;22.98;56.82;94599.12;1612448;86;21072;-69
2021/09/16 09:42:26;;;;;;;20.60;10.38;;;;;;;23.16;56.64;94600.53;1616676;87;21211;-66
2021/09/16 09:44:55;;;;;;;17.30;10.28;;;;;;;23.44;56.43;94600.88;1612236;86;21077;-65
2021/09/16 09:47:40;;;;;;;20.60;12.03;;;;;;;23.82;55.50;94607.15;1601792;87;21097;-64
2021/09/16 09:50:23;;;;;;;18.32;10.05;;;;;;;24.17;54.49;94596.34;1614522;88;21086;-69
2021/09/16 09:52:52;;;;;;;21.27;11.78;;;;;;;24.67;53.67;94596.14;1614101;88;21051;-65
2021/09/16 09:55:23;;;;;;;15.83;12.25;;;;;;;25.18;52.89;94608.01;1609929;87;21484;-62
2021/09/16 09:58:01;;;;;;;20.82;11.83;;;;;;;25.60;51.71;94590.50;1617718;86;21019;-65
2021/09/16 10:00:28;;;;;;;20.45;11.20;;;;;;;25.99;51.12;94589.04;1618447;87;21807;-70
2021/09/16 10:02:56;;;;;;;61.13;15.23;;;;;;;26.51;49.32;94587.27;1603232;87;21063;-64
2021/09/16 10:05:33;;;;;;;15.93;9.95;;;;;;;26.94;48.60;94585.92;1619738;87;21062;-66
2021/09/16 10:08:13;;;;;;;15.15;9.25;;;;;;;27.35;47.28;94585.72;1617286;86;21106;-64
2021/09/16 10:10:50;;;;;;;15.00;10.38;;;;;;;27.82;45.56;94583.23;1627772;87;21178;-63
2021/09/16 10:13:18;;;;;;;20.88;10.03;;;;;;;28.27;44.72;94573.32;1619024;86;21156;-65
2021/09/16 10:15:47;;;;;;;12.15;9.00;;;;;;;28.65;44.01;94578.30;1596602;87;21132;-67
2021/09/16 10:18:15;;;;;;;14.68;8.43;;;;;;;29.01;42.78;94584.45;1593478;88;21104;-66
2021/09/16 10:20:45;;;;;;;16.95;9.08;;;;;;;29.15;41.91;94580.80;1590207;89;21092;-65
2021/09/16 10:23:13;;;;;;;16.30;8.15;;;;;;;29.40;42.19;94572.38;1596269;88;21105;-68
2021/09/16 10:25:49;;;;;;;14.93;7.28;;;;;;;29.79;41.19;94578.70;1587413;89;21091;-65
2021/09/16 10:28:17;;;;;;;13.03;8.20;;;;;;;30.03;39.98;94575.27;1581527;90;21196;-66
2021/09/16 10:30:49;;;;;;;21.45;8.00;;;;;;;29.86;40.36;94576.50;1580303;90;21244;-66
2021/09/16 10:33:28;;;;;;;20.52;8.13;;;;;;;29.60;40.28;94583.47;1582738;88;21084;-66
2021/09/16 10:36:06;;;;;;;11.65;8.13;;;;;;;29.28;40.69;94575.58;1577154;88;21072;-68
2021/09/16 10:38:43;;;;;;;17.25;7.35;;;;;;;29.41;40.64;94566.80;1614854;87;21272;-67
2021/09/16 10:41:24;;;;;;;19.05;7.45;;;;;;;29.51;40.27;94569.16;1597160;87;21564;-62
2021/09/16 10:44:01;;;;;;;;;;;;;;;29.32;40.16;94561.08;1575754;88;21562;-68
2021/09/16 10:46:42;;;;;;;15.83;7.30;;;;;;;29.35;39.84;94564.86;1592902;88;20524;-67
2021/09/16 10:49:28;;;;;;;14.38;7.83;;;;;;;29.50;38.42;94562.72;1602914;88;21181;-67
2021/09/16 10:52:12;;;;;;;10.08;6.25;;;;;;;29.60;39.53;94557.17;1600653;88;21339;-69
2021/09/16 10:54:56;;;;;;;14.98;6.80;;;;;;;29.81;38.81;94556.18;1601201;87;21042;-72
2021/09/16 10:57:38;;;;;;;11.00;6.47;;;;;;;30.01;38.29;94559.45;1600373;87;21187;-70
2021/09/16 11:00:10;;;;;;;9.75;6.30;;;;;;;30.10;37.61;94553.84;1616991;87;21096;-67
2021/09/16 11:02:48;;;;;;;6.33;5.10;;;;;;;30.15;37.07;94549.32;1595877;87;22302;-61
2021/09/16 11:05:18;;;;;;;17.55;6.40;;;;;;;30.41;36.74;94547.30;1628423;87;21171;-65
2021/09/16 11:07:52;;;;;;;13.18;5.87;;;;;;;30.81;36.68;94540.76;1627627;87;21238;-69
2021/09/16 11:10:29;;;;;;;12.93;7.10;;;;;;;31.16;35.86;94535.16;1601697;87;21054;-63
2021/09/16 11:13:05;;;;;;;24.23;7.15;;;;;;;31.41;36.36;94532.93;1607434;86;21106;-68
2021/09/16 11:15:34;;;;;;;9.88;6.12;;;;;;;31.70;35.79;94528.20;1609524;87;21631;-64
2021/09/16 11:18:12;;;;;;;10.82;7.22;;;;;;;32.08;34.18;94522.66;1616179;87;21159;-61
2021/09/16 11:20:42;;;;;;;16.30;7.55;;;;;;;32.39;34.04;94525.85;1607742;87;21113;-64
2021/09/16 11:23:11;;;;;;;8.00;6.17;;;;;;;32.86;33.28;94523.02;1606459;87;21117;-58
2021/09/16 11:25:45;;;;;;;12.70;5.85;;;;;;;33.12;31.29;94524.98;1610727;86;21173;-61
2021/09/16 11:28:12;;;;;;;10.88;6.87;;;;;;;33.08;31.36;94527.52;1612047;87;21129;-63